createdAt,value
2022-10-01T00:00:19.855Z,45.3
2022-10-01T00:05:15.948Z,45.3
2022-10-01T00:10:18.945Z,45.3
2022-10-01T00:15:18.954Z,45.7
2022-10-01T00:20:18.922Z,45.6
2022-10-01T00:25:18.950Z,45.6
2022-10-01T00:30:15.951Z,45.5
2022-10-01T00:35:19.961Z,45.4
2022-10-01T00:40:18.974Z,45.3
2022-10-01T00:45:15.965Z,45.3
2022-10-01T00:50:19.008Z,45.2
2022-10-01T00:55:15.803Z,45.1
2022-10-01T01:00:15.961Z,45.0
2022-10-01T01:05:18.992Z,45.0
2022-10-01T01:10:20.342Z,44.9
2022-10-01T01:15:18.950Z,44.8
2022-10-01T01:20:15.963Z,44.7
2022-10-01T01:25:15.994Z,44.7
2022-10-01T01:30:18.981Z,44.6
2022-10-01T01:35:15.991Z,44.5
2022-10-01T01:40:15.978Z,44.5
2022-10-01T01:45:20.021Z,44.4
2022-10-01T01:50:19.015Z,44.3
2022-10-01T01:55:18.995Z,44.2
2022-10-01T02:00:16.052Z,44.5
2022-10-01T02:05:18.985Z,44.5
2022-10-01T02:10:19.008Z,44.3
2022-10-01T02:15:16.063Z,44.3
2022-10-01T02:20:16.896Z,44.2
2022-10-01T02:25:19.053Z,44.1
2022-10-01T02:30:18.986Z,44.1
2022-10-01T02:35:18.951Z,44.0
2022-10-01T02:40:19.022Z,44.4
2022-10-01T02:45:19.035Z,44.4
2022-10-01T02:50:20.014Z,44.3
2022-10-01T02:55:18.982Z,44.2
2022-10-01T03:00:19.024Z,44.2
2022-10-01T03:05:19.059Z,44.0
2022-10-01T03:10:19.016Z,44.0
2022-10-01T03:15:19.044Z,43.9
2022-10-01T03:20:16.069Z,43.8
2022-10-01T03:25:20.077Z,43.7
2022-10-01T03:30:15.840Z,43.6
2022-10-01T03:35:19.062Z,43.5
2022-10-01T03:40:16.068Z,43.9
2022-10-01T03:45:16.089Z,43.9
2022-10-01T03:50:19.102Z,44.4
2022-10-01T03:55:18.995Z,44.5
2022-10-01T04:00:21.377Z,44.8
2022-10-01T04:05:17.322Z,44.8
2022-10-01T04:10:20.419Z,44.8
2022-10-01T04:15:20.251Z,44.8
2022-10-01T04:20:20.231Z,44.7
2022-10-01T04:25:17.335Z,45.1
2022-10-01T04:30:20.324Z,45.1
2022-10-01T04:35:21.406Z,45.1
2022-10-01T04:40:20.305Z,45.1
2022-10-01T04:45:20.288Z,45.0
2022-10-01T04:50:20.295Z,45.0
2022-10-01T04:55:17.360Z,44.9
2022-10-01T05:00:20.324Z,44.9
2022-10-01T05:05:20.358Z,44.9
2022-10-01T05:10:18.175Z,44.8
2022-10-01T05:15:17.337Z,44.7
2022-10-01T05:20:20.348Z,44.6
2022-10-01T05:25:20.327Z,44.5
2022-10-01T05:30:18.314Z,44.5
2022-10-01T05:35:20.336Z,44.5
2022-10-01T05:40:21.318Z,44.4
2022-10-01T05:45:18.297Z,44.7
2022-10-01T05:50:18.303Z,44.6
2022-10-01T05:55:18.312Z,44.6
2022-10-01T06:00:15.361Z,44.5
2022-10-01T06:05:15.394Z,44.5
2022-10-01T06:10:18.337Z,44.4
2022-10-01T06:15:19.336Z,44.3
2022-10-01T06:20:20.396Z,44.3
2022-10-01T06:25:15.371Z,44.7
2022-10-01T06:30:18.357Z,44.7
2022-10-01T06:35:18.319Z,44.6
2022-10-01T06:40:18.319Z,44.6
2022-10-01T06:45:15.368Z,44.5
2022-10-01T06:50:16.440Z,44.4
2022-10-01T06:55:18.354Z,44.3
2022-10-01T07:00:15.364Z,44.3
2022-10-01T07:05:18.349Z,44.2
2022-10-01T07:10:18.345Z,44.2
2022-10-01T07:15:15.456Z,44.2
2022-10-01T07:20:15.432Z,44.2
2022-10-01T07:25:19.433Z,44.5
2022-10-01T07:30:18.351Z,44.5
2022-10-01T07:35:18.335Z,44.8
2022-10-01T07:40:15.367Z,44.9
2022-10-01T07:45:15.435Z,44.9
2022-10-01T07:50:18.375Z,45.2
2022-10-01T07:55:18.375Z,45.2
2022-10-01T08:00:19.257Z,45.2
2022-10-01T08:05:15.427Z,45.2
2022-10-01T08:10:15.441Z,45.5
2022-10-01T08:15:18.388Z,45.5
2022-10-01T08:20:18.391Z,45.5
2022-10-01T08:25:18.430Z,45.5
2022-10-01T08:30:15.406Z,45.5
2022-10-01T08:35:19.382Z,45.5
2022-10-01T08:40:18.405Z,45.5
2022-10-01T08:45:18.369Z,45.6
2022-10-01T08:50:18.384Z,45.6
2022-10-01T08:55:15.490Z,45.6
2022-10-01T09:00:15.505Z,46.0
2022-10-01T09:05:15.445Z,46.0
2022-10-01T09:10:19.455Z,46.0
2022-10-01T09:15:18.386Z,46.0
2022-10-01T09:20:18.449Z,46.0
2022-10-01T09:25:15.424Z,45.9
2022-10-01T09:30:15.487Z,45.9
2022-10-01T09:35:18.419Z,45.9
2022-10-01T09:40:18.410Z,45.9
2022-10-01T09:45:19.347Z,46.0
2022-10-01T09:50:18.418Z,46.0
2022-10-01T09:55:15.444Z,46.0
2022-10-01T10:00:15.603Z,46.0
2022-10-01T10:05:18.487Z,46.1
2022-10-01T10:10:21.059Z,46.0
2022-10-01T10:15:15.434Z,46.1
2022-10-01T10:20:16.326Z,46.1
2022-10-01T10:25:15.452Z,46.1
2022-10-01T10:30:18.522Z,46.1
2022-10-01T10:35:18.441Z,46.1
2022-10-01T10:40:18.476Z,46.1
2022-10-01T10:45:15.484Z,46.1
2022-10-01T10:50:15.579Z,46.4
2022-10-01T10:55:19.538Z,46.3
2022-10-01T11:00:18.488Z,46.3
2022-10-01T11:05:18.433Z,46.3
2022-10-01T11:10:18.488Z,46.1
2022-10-01T11:15:15.513Z,46.1
2022-10-01T11:20:20.451Z,46.2
2022-10-01T11:25:18.503Z,46.2
2022-10-01T11:30:19.569Z,46.3
2022-10-01T11:35:18.444Z,46.3
2022-10-01T11:40:18.452Z,46.4
2022-10-01T11:45:18.477Z,46.4
2022-10-01T11:50:18.458Z,46.4
2022-10-01T11:55:15.557Z,46.5
2022-10-01T12:00:15.536Z,46.6
2022-10-01T12:05:19.704Z,46.6
2022-10-01T12:10:18.526Z,46.6
2022-10-01T12:15:15.344Z,46.7
2022-10-01T12:20:15.551Z,46.8
2022-10-01T12:25:18.545Z,46.9
2022-10-01T12:30:18.521Z,46.9
2022-10-01T12:35:15.561Z,47.0
2022-10-01T12:40:19.549Z,47.1
2022-10-01T12:45:18.515Z,47.1
2022-10-01T12:50:15.515Z,47.1
2022-10-01T12:55:18.530Z,47.2
2022-10-01T13:00:18.700Z,47.2
2022-10-01T13:05:15.565Z,47.3
2022-10-01T13:10:15.529Z,47.3
2022-10-01T13:15:19.585Z,47.3
2022-10-01T13:20:18.511Z,47.4
2022-10-01T13:25:15.547Z,47.4
2022-10-01T13:30:18.659Z,47.2
2022-10-01T13:35:15.541Z,47.3
2022-10-01T13:40:15.592Z,47.4
2022-10-01T13:45:16.808Z,47.5
2022-10-01T13:50:19.513Z,47.5
2022-10-01T13:55:18.552Z,47.5
2022-10-01T14:00:15.579Z,47.6
2022-10-01T14:05:15.577Z,47.7
2022-10-01T14:10:18.539Z,47.7
2022-10-01T14:15:15.554Z,47.8
2022-10-01T14:20:15.546Z,47.8
2022-10-01T14:25:19.623Z,47.8
2022-10-01T14:30:18.550Z,47.9
2022-10-01T14:35:18.530Z,48.0
2022-10-01T14:40:15.588Z,48.1
2022-10-01T14:45:18.604Z,48.1
2022-10-01T14:50:18.579Z,48.2
2022-10-01T14:55:18.557Z,48.6
2022-10-01T15:00:16.627Z,48.7
2022-10-01T15:05:20.391Z,48.7
2022-10-01T15:10:18.534Z,48.7
2022-10-01T15:15:18.565Z,48.7
2022-10-01T15:20:15.587Z,49.1
2022-10-01T15:25:18.558Z,49.1
2022-10-01T15:30:19.594Z,49.1
2022-10-01T15:35:18.558Z,49.1
2022-10-01T15:40:18.529Z,49.1
2022-10-01T15:45:18.554Z,49.2
2022-10-01T15:50:18.544Z,49.2
2022-10-01T15:55:15.628Z,49.0
2022-10-01T16:00:15.625Z,49.1
2022-10-01T16:05:19.591Z,49.1
2022-10-01T16:10:18.570Z,49.1
2022-10-01T16:15:18.608Z,48.7
2022-10-01T16:20:15.654Z,48.8
2022-10-01T16:25:18.600Z,49.0
2022-10-01T16:30:18.595Z,49.1
2022-10-01T16:35:18.582Z,49.3
2022-10-01T16:40:16.672Z,49.4
2022-10-01T16:45:18.591Z,49.6
2022-10-01T16:50:18.660Z,49.5
2022-10-01T16:55:18.571Z,50.0
2022-10-01T17:00:15.618Z,50.1
2022-10-01T17:05:18.637Z,50.4
2022-10-01T17:10:19.652Z,50.6
2022-10-01T17:15:18.715Z,50.8
2022-10-01T17:20:15.638Z,51.3
2022-10-01T17:25:18.639Z,51.4
2022-10-01T17:30:15.682Z,51.6
2022-10-01T17:35:18.620Z,52.1
2022-10-01T17:40:15.656Z,52.0
2022-10-01T17:45:16.591Z,52.2
2022-10-01T17:50:18.682Z,52.2
2022-10-01T17:55:18.625Z,52.2
2022-10-01T18:00:18.587Z,51.8
2022-10-01T18:05:15.637Z,51.8
2022-10-01T18:10:15.731Z,51.8
2022-10-01T18:15:19.662Z,51.8
2022-10-01T18:20:15.656Z,51.9
2022-10-01T18:25:15.652Z,51.9
2022-10-01T18:30:18.634Z,51.9
2022-10-01T18:35:18.622Z,52.0
2022-10-01T18:40:18.636Z,51.7
2022-10-01T18:45:15.685Z,51.5
2022-10-01T18:50:19.690Z,51.4
2022-10-01T18:55:21.092Z,51.5
2022-10-01T19:00:18.665Z,51.1
2022-10-01T19:05:18.682Z,51.2
2022-10-01T19:10:15.752Z,50.5
2022-10-01T19:15:18.652Z,50.5
2022-10-01T19:20:18.680Z,50.2
2022-10-01T19:25:16.647Z,49.9
2022-10-01T19:30:15.675Z,49.0
2022-10-01T19:35:18.662Z,49.0
2022-10-01T19:40:18.654Z,48.9
2022-10-01T19:45:18.658Z,48.4
2022-10-01T19:50:15.691Z,48.8
2022-10-01T19:55:15.750Z,48.9
2022-10-01T20:00:19.679Z,48.8
2022-10-01T20:05:18.679Z,48.8
2022-10-01T20:10:18.660Z,49.3
2022-10-01T20:15:15.723Z,49.6
2022-10-01T20:20:18.674Z,50.0
2022-10-01T20:25:18.715Z,50.3
2022-10-01T20:30:18.667Z,50.6
2022-10-01T20:35:16.690Z,50.6
2022-10-01T20:40:15.720Z,50.5
2022-10-01T20:45:18.716Z,50.5
2022-10-01T20:50:18.688Z,50.5
2022-10-01T20:55:18.703Z,50.6
2022-10-01T21:00:15.740Z,50.6
2022-10-01T21:05:15.806Z,50.6
2022-10-01T21:10:19.744Z,50.6
2022-10-01T21:15:18.698Z,50.6
2022-10-01T21:20:18.687Z,50.6
2022-10-01T21:25:15.612Z,50.2
2022-10-01T21:30:18.702Z,50.2
2022-10-01T21:35:18.729Z,50.3
2022-10-01T21:40:18.721Z,50.3
2022-10-01T21:45:19.649Z,50.0
2022-10-01T21:50:18.703Z,49.6
2022-10-01T21:55:15.775Z,49.6
2022-10-01T22:00:15.707Z,49.3
2022-10-01T22:05:15.814Z,49.3
2022-10-01T22:10:18.812Z,49.0
2022-10-01T22:15:18.729Z,49.0
2022-10-01T22:20:16.670Z,48.6
2022-10-01T22:25:15.812Z,48.6
2022-10-01T22:30:18.741Z,48.7
2022-10-01T22:35:18.712Z,49.2
2022-10-01T22:40:18.724Z,49.5
2022-10-01T22:45:15.773Z,49.5
2022-10-01T22:50:15.745Z,49.4
2022-10-01T22:55:16.746Z,49.8
2022-10-01T23:00:18.765Z,49.7
2022-10-01T23:05:18.753Z,50.1
2022-10-01T23:10:18.739Z,50.0
2022-10-01T23:15:15.792Z,50.0
2022-10-01T23:20:18.816Z,50.2
2022-10-01T23:25:15.886Z,50.2
2022-10-01T23:30:19.815Z,50.2
2022-10-01T23:35:15.787Z,50.6
2022-10-01T23:40:15.847Z,50.6
2022-10-01T23:45:18.771Z,50.6
2022-10-01T23:50:18.756Z,50.6
2022-10-01T23:55:18.748Z,50.6
